sensor_id;sensor_type;location;lat;lon;timestamp;pressure;altitude;pressure_sealevel;temperature;humidity
59315;BME280;46521;50.160;20.802;2023-05-07T00:16:04;99761.69;;;10.56;72.98
59315;BME280;46521;50.160;20.802;2023-05-07T00:26:06;99771.78;;;10.44;73.26
59315;BME280;46521;50.160;20.802;2023-05-07T00:36:08;99764.59;;;10.12;73.45
59315;BME280;46521;50.160;20.802;2023-05-07T00:46:09;99774.81;;;9.99;73.99
59315;BME280;46521;50.160;20.802;2023-05-07T00:56:12;99776.13;;;10.03;73.80
59315;BME280;46521;50.160;20.802;2023-05-07T01:06:15;99787.89;;;10.17;73.87
59315;BME280;46521;50.160;20.802;2023-05-07T01:16:18;99796.46;;;10.10;73.63
59315;BME280;46521;50.160;20.802;2023-05-07T01:26:22;99805.02;;;9.96;73.41
59315;BME280;46521;50.160;20.802;2023-05-07T01:36:25;99804.34;;;9.86;73.49
59315;BME280;46521;50.160;20.802;2023-05-07T01:46:29;99799.64;;;9.71;73.93
59315;BME280;46521;50.160;20.802;2023-05-07T01:56:32;99808.03;;;9.67;73.41
59315;BME280;46521;50.160;20.802;2023-05-07T02:06:33;99805.92;;;9.70;73.60
59315;BME280;46521;50.160;20.802;2023-05-07T02:16:34;99807.84;;;9.60;73.21
59315;BME280;46521;50.160;20.802;2023-05-07T02:26:36;99822.14;;;9.49;72.88
59315;BME280;46521;50.160;20.802;2023-05-07T02:36:38;99829.29;;;9.31;73.24
59315;BME280;46521;50.160;20.802;2023-05-07T02:46:44;99819.05;;;9.28;73.41
59315;BME280;46521;50.160;20.802;2023-05-07T02:56:46;99833.55;;;9.24;73.53
59315;BME280;46521;50.160;20.802;2023-05-07T03:06:47;99842.70;;;9.11;73.18
59315;BME280;46521;50.160;20.802;2023-05-07T03:16:49;99852.05;;;9.06;73.46
59315;BME280;46521;50.160;20.802;2023-05-07T03:26:51;99868.27;;;8.93;73.75
59315;BME280;46521;50.160;20.802;2023-05-07T03:36:52;99879.13;;;8.90;73.50
59315;BME280;46521;50.160;20.802;2023-05-07T03:46:54;99897.22;;;8.84;73.06
59315;BME280;46521;50.160;20.802;2023-05-07T03:56:56;99894.36;;;8.78;73.88
59315;BME280;46521;50.160;20.802;2023-05-07T04:06:58;99895.33;;;8.77;73.75
59315;BME280;46521;50.160;20.802;2023-05-07T04:17:01;99906.85;;;8.76;73.41
59315;BME280;46521;50.160;20.802;2023-05-07T04:27:03;99919.44;;;8.64;73.51
59315;BME280;46521;50.160;20.802;2023-05-07T04:37:07;99931.16;;;8.52;72.95
59315;BME280;46521;50.160;20.802;2023-05-07T04:47:08;99939.97;;;8.60;73.14
59315;BME280;46521;50.160;20.802;2023-05-07T04:57:10;99955.94;;;8.59;73.64
59315;BME280;46521;50.160;20.802;2023-05-07T05:07:12;99968.07;;;8.52;73.34
59315;BME280;46521;50.160;20.802;2023-05-07T05:17:39;99988.33;;;8.41;72.83
59315;BME280;46521;50.160;20.802;2023-05-07T05:27:41;99998.00;;;8.23;73.11
59315;BME280;46521;50.160;20.802;2023-05-07T05:37:43;100000.46;;;8.24;73.84
59315;BME280;46521;50.160;20.802;2023-05-07T05:47:44;100007.65;;;8.32;73.10
59315;BME280;46521;50.160;20.802;2023-05-07T05:57:46;100024.45;;;8.31;73.47
59315;BME280;46521;50.160;20.802;2023-05-07T06:07:47;100039.02;;;8.25;73.66
59315;BME280;46521;50.160;20.802;2023-05-07T06:17:49;100046.78;;;8.27;73.98
59315;BME280;46521;50.160;20.802;2023-05-07T06:27:50;100051.80;;;8.20;73.86
59315;BME280;46521;50.160;20.802;2023-05-07T06:37:52;100057.64;;;8.14;73.76
59315;BME280;46521;50.160;20.802;2023-05-07T06:47:54;100074.13;;;8.16;73.27
59315;BME280;46521;50.160;20.802;2023-05-07T06:57:55;100080.64;;;8.22;73.77
59315;BME280;46521;50.160;20.802;2023-05-07T07:07:59;100082.88;;;8.17;73.93
59315;BME280;46521;50.160;20.802;2023-05-07T07:18:00;100107.58;;;8.06;74.27
59315;BME280;46521;50.160;20.802;2023-05-07T07:28:02;100116.45;;;7.95;73.68
59315;BME280;46521;50.160;20.802;2023-05-07T07:38:03;100133.63;;;7.99;73.58
59315;BME280;46521;50.160;20.802;2023-05-07T07:48:05;100136.26;;;7.99;73.23
59315;BME280;46521;50.160;20.802;2023-05-07T07:58:06;100146.80;;;7.89;73.80
59315;BME280;46521;50.160;20.802;2023-05-07T08:08:08;100159.15;;;7.89;73.60
59315;BME280;46521;50.160;20.802;2023-05-07T08:18:10;100171.36;;;7.90;73.27
59315;BME280;46521;50.160;20.802;2023-05-07T08:28:11;100173.13;;;7.99;73.39
59315;BME280;46521;50.160;20.802;2023-05-07T08:38:13;100188.27;;;8.17;73.21
59315;BME280;46521;50.160;20.802;2023-05-07T08:48:16;100201.86;;;8.22;73.34
59315;BME280;46521;50.160;20.802;2023-05-07T08:58:18;100209.08;;;8.20;73.46
59315;BME280;46521;50.160;20.802;2023-05-07T09:08:24;100215.44;;;8.27;73.30
59315;BME280;46521;50.160;20.802;2023-05-07T09:18:27;100232.38;;;8.54;72.67
59315;BME280;46521;50.160;20.802;2023-05-07T09:28:28;100244.29;;;8.68;72.64
59315;BME280;46521;50.160;20.802;2023-05-07T09:38:30;100253.45;;;8.73;72.32
59315;BME280;46521;50.160;20.802;2023-05-07T09:48:32;100267.91;;;8.50;72.65
59315;BME280;46521;50.160;20.802;2023-05-07T09:58:37;100270.69;;;8.48;72.40
59315;BME280;46521;50.160;20.802;2023-05-07T10:08:39;100278.73;;;8.46;72.21
59315;BME280;46521;50.160;20.802;2023-05-07T10:18:41;100289.81;;;8.60;72.40
59315;BME280;46521;50.160;20.802;2023-05-07T10:28:47;100297.03;;;8.68;72.28
59315;BME280;46521;50.160;20.802;2023-05-07T10:38:49;100313.13;;;8.64;71.65
59315;BME280;46521;50.160;20.802;2023-05-07T11:19:54;100359.19;;;8.51;71.25
59315;BME280;46521;50.160;20.802;2023-05-07T11:29:56;100358.64;;;8.57;71.35
59315;BME280;46521;50.160;20.802;2023-05-07T11:40:05;100367.23;;;8.49;71.10
59315;BME280;46521;50.160;20.802;2023-05-07T11:50:08;100366.69;;;8.45;71.01
59315;BME280;46521;50.160;20.802;2023-05-07T12:00:10;100376.41;;;8.45;71.25
59315;BME280;46521;50.160;20.802;2023-05-07T12:10:11;100370.64;;;8.30;71.02
59315;BME280;46521;50.160;20.802;2023-05-07T12:20:14;100395.32;;;8.29;70.39
59315;BME280;46521;50.160;20.802;2023-05-07T12:30:16;100395.72;;;8.24;70.50
59315;BME280;46521;50.160;20.802;2023-05-07T12:40:18;100407.13;;;8.25;70.46
59315;BME280;46521;50.160;20.802;2023-05-07T12:50:22;100409.73;;;8.15;70.49
59315;BME280;46521;50.160;20.802;2023-05-07T13:00:37;100417.05;;;8.11;70.17
59315;BME280;46521;50.160;20.802;2023-05-07T13:10:39;100411.48;;;8.05;70.31
59315;BME280;46521;50.160;20.802;2023-05-07T13:20:40;100417.64;;;8.15;70.49
59315;BME280;46521;50.160;20.802;2023-05-07T13:30:42;100414.49;;;8.31;70.08
59315;BME280;46521;50.160;20.802;2023-05-07T13:40:43;100423.77;;;8.35;70.24
59315;BME280;46521;50.160;20.802;2023-05-07T13:50:45;100421.81;;;8.27;69.80
59315;BME280;46521;50.160;20.802;2023-05-07T14:00:46;100437.33;;;8.21;69.88
59315;BME280;46521;50.160;20.802;2023-05-07T14:10:48;100438.13;;;8.11;70.54
59315;BME280;46521;50.160;20.802;2023-05-07T14:20:49;100449.19;;;8.05;69.80
59315;BME280;46521;50.160;20.802;2023-05-07T14:30:51;100447.81;;;8.01;70.31
59315;BME280;46521;50.160;20.802;2023-05-07T14:40:53;100467.42;;;7.87;70.09
59315;BME280;46521;50.160;20.802;2023-05-07T14:50:56;100472.47;;;8.00;69.97
59315;BME280;46521;50.160;20.802;2023-05-07T15:00:58;100482.58;;;7.95;69.90
59315;BME280;46521;50.160;20.802;2023-05-07T15:11:00;100483.43;;;7.74;69.60
59315;BME280;46521;50.160;20.802;2023-05-07T15:21:01;100498.31;;;7.64;70.10
59315;BME280;46521;50.160;20.802;2023-05-07T15:31:03;100503.14;;;7.59;70.64
59315;BME280;46521;50.160;20.802;2023-05-07T15:41:06;100512.69;;;7.60;69.92
59315;BME280;46521;50.160;20.802;2023-05-07T15:51:07;100521.00;;;7.55;70.69
59315;BME280;46521;50.160;20.802;2023-05-07T16:01:10;100521.41;;;7.39;70.29
59315;BME280;46521;50.160;20.802;2023-05-07T16:11:12;100520.75;;;7.26;70.62
59315;BME280;46521;50.160;20.802;2023-05-07T16:21:13;100527.95;;;7.24;70.49
59315;BME280;46521;50.160;20.802;2023-05-07T16:31:15;100539.66;;;7.20;70.54
59315;BME280;46521;50.160;20.802;2023-05-07T16:41:17;100526.67;;;7.07;70.28
59315;BME280;46521;50.160;20.802;2023-05-07T16:51:18;100538.84;;;7.08;70.83
59315;BME280;46521;50.160;20.802;2023-05-07T17:01:20;100541.36;;;7.10;70.33
59315;BME280;46521;50.160;20.802;2023-05-07T17:11:21;100547.11;;;7.03;70.01
59315;BME280;46521;50.160;20.802;2023-05-07T17:21:23;100554.78;;;6.95;71.18
59315;BME280;46521;50.160;20.802;2023-05-07T17:31:25;100586.47;;;6.94;70.90
59315;BME280;46521;50.160;20.802;2023-05-07T17:41:26;100584.08;;;6.91;70.82
59315;BME280;46521;50.160;20.802;2023-05-07T17:51:28;100587.92;;;6.87;71.32
59315;BME280;46521;50.160;20.802;2023-05-07T18:01:29;100592.94;;;6.90;70.64
59315;BME280;46521;50.160;20.802;2023-05-07T18:11:33;100603.19;;;6.93;70.85
59315;BME280;46521;50.160;20.802;2023-05-07T18:21:35;100617.66;;;6.98;71.08
59315;BME280;46521;50.160;20.802;2023-05-07T18:31:36;100616.71;;;6.99;70.54
59315;BME280;46521;50.160;20.802;2023-05-07T18:41:37;100623.63;;;7.00;70.51
59315;BME280;46521;50.160;20.802;2023-05-07T18:51:39;100631.52;;;7.00;70.77
59315;BME280;46521;50.160;20.802;2023-05-07T19:01:43;100634.03;;;7.02;71.24
59315;BME280;46521;50.160;20.802;2023-05-07T19:11:46;100636.17;;;7.08;70.52
59315;BME280;46521;50.160;20.802;2023-05-07T19:21:48;100648.50;;;7.08;71.11
59315;BME280;46521;50.160;20.802;2023-05-07T19:31:49;100653.30;;;6.91;70.79
59315;BME280;46521;50.160;20.802;2023-05-07T19:41:51;100648.14;;;6.78;70.75
59315;BME280;46521;50.160;20.802;2023-05-07T19:51:53;100650.89;;;6.77;71.17
59315;BME280;46521;50.160;20.802;2023-05-07T20:01:54;100663.56;;;6.72;70.16
59315;BME280;46521;50.160;20.802;2023-05-07T20:11:56;100668.58;;;6.75;71.02
59315;BME280;46521;50.160;20.802;2023-05-07T20:21:57;100676.95;;;6.80;71.29
59315;BME280;46521;50.160;20.802;2023-05-07T20:32:02;100672.19;;;6.85;71.24
59315;BME280;46521;50.160;20.802;2023-05-07T20:42:03;100680.08;;;6.85;70.26
59315;BME280;46521;50.160;20.802;2023-05-07T20:52:05;100676.00;;;6.81;70.31
59315;BME280;46521;50.160;20.802;2023-05-07T21:02:07;100692.72;;;6.80;70.57
59315;BME280;46521;50.160;20.802;2023-05-07T21:12:08;100703.23;;;6.80;71.32
59315;BME280;46521;50.160;20.802;2023-05-07T21:22:12;100702.17;;;6.71;70.52
59315;BME280;46521;50.160;20.802;2023-05-07T21:32:13;100708.01;;;6.63;70.59
59315;BME280;46521;50.160;20.802;2023-05-07T21:42:15;100715.48;;;6.45;70.68
59315;BME280;46521;50.160;20.802;2023-05-07T21:52:16;100727.79;;;6.45;71.13
59315;BME280;46521;50.160;20.802;2023-05-07T22:02:18;100724.79;;;6.38;70.66
59315;BME280;46521;50.160;20.802;2023-05-07T22:12:20;100712.25;;;6.42;70.51
59315;BME280;46521;50.160;20.802;2023-05-07T22:22:21;100709.14;;;6.37;70.20
59315;BME280;46521;50.160;20.802;2023-05-07T22:32:22;100711.22;;;6.20;70.44
59315;BME280;46521;50.160;20.802;2023-05-07T22:42:24;100714.81;;;6.19;69.92
59315;BME280;46521;50.160;20.802;2023-05-07T22:52:26;100718.61;;;6.15;70.28
59315;BME280;46521;50.160;20.802;2023-05-07T23:02:27;100715.64;;;6.20;70.20
59315;BME280;46521;50.160;20.802;2023-05-07T23:12:29;100719.24;;;6.30;70.43
59315;BME280;46521;50.160;20.802;2023-05-07T23:22:30;100712.59;;;6.37;70.66
59315;BME280;46521;50.160;20.802;2023-05-07T23:32:32;100704.23;;;6.32;70.48
59315;BME280;46521;50.160;20.802;2023-05-07T23:42:33;100708.36;;;6.23;70.12
